RYR4546 EPMO-EPKK
Flight info
| Callsign | RYR4546 |
|---|---|
| Flight time | 0h 49m |
| Altitude | 32000 |
| Route | EVINA M66 KUKAM |
| Aircraft | B738/M-SDE2E3FGHIRWXY/LB1 |
Departure
| Time | 2026-05-06 16:53 |
|---|---|
| Airport | Warsaw Modlin Airport (EPMO) |
Arrival
| Time | 2026-05-06 17:42 |
|---|---|
| Airport | Kraków John Paul II International Airport (EPKK) |
| Time | Latitude | Longitude | Altitude | Speed | Heading |
|---|---|---|---|---|---|
| 2026-05-06 16:16 | 52.44760 | 20.65422 | 357 ft | 0 kts | 207° |
| 2026-05-06 16:41 | 52.44773 | 20.65437 | 359 ft | 2 kts | 214° |
| 2026-05-06 16:41 | 52.44788 | 20.65449 | 353 ft | 2 kts | 166° |
| 2026-05-06 16:42 | 52.44801 | 20.65433 | 359 ft | 2 kts | 115° |
| 2026-05-06 16:42 | 52.44805 | 20.65410 | 358 ft | 1 kts | 90° |
| 2026-05-06 16:42 | 52.44805 | 20.65406 | 358 ft | 0 kts | 86° |
| 2026-05-06 16:45 | 52.44806 | 20.65427 | 358 ft | 8 kts | 86° |
| 2026-05-06 16:45 | 52.44822 | 20.65605 | 349 ft | 24 kts | 81° |
| 2026-05-06 16:45 | 52.44854 | 20.65952 | 351 ft | 37 kts | 81° |
| 2026-05-06 16:46 | 52.44896 | 20.66400 | 356 ft | 42 kts | 82° |
| 2026-05-06 16:46 | 52.44940 | 20.66870 | 356 ft | 33 kts | 81° |
| 2026-05-06 16:46 | 52.45043 | 20.67068 | 352 ft | 20 kts | 356° |
| 2026-05-06 16:46 | 52.45178 | 20.67029 | 353 ft | 0 kts | 346° |
| 2026-05-06 16:51 | 52.45190 | 20.67024 | 355 ft | 5 kts | 346° |
| 2026-05-06 16:51 | 52.45253 | 20.66988 | 354 ft | 13 kts | 334° |
| 2026-05-06 16:51 | 52.45282 | 20.66869 | 356 ft | 12 kts | 252° |
| 2026-05-06 16:52 | 52.45272 | 20.66800 | 350 ft | 0 kts | 262° |
| 2026-05-06 16:53 | 52.45263 | 20.66702 | 348 ft | 40 kts | 262° |
| 2026-05-06 16:53 | 52.45176 | 20.65755 | 352 ft | 125 kts | 261° |
| 2026-05-06 16:53 | 52.45000 | 20.63968 | 507 ft | 184 kts | 263° |
| 2026-05-06 16:53 | 52.44832 | 20.61780 | 1321 ft | 204 kts | 262° |
| 2026-05-06 16:54 | 52.44583 | 20.59334 | 1891 ft | 230 kts | 259° |
| 2026-05-06 16:54 | 52.44290 | 20.56726 | 2402 ft | 236 kts | 259° |
| 2026-05-06 16:54 | 52.44398 | 20.54015 | 2823 ft | 245 kts | 292° |
| 2026-05-06 16:54 | 52.45508 | 20.51994 | 3274 ft | 242 kts | 332° |
| 2026-05-06 16:55 | 52.47130 | 20.51522 | 3745 ft | 244 kts | 6° |
| 2026-05-06 16:55 | 52.48849 | 20.51802 | 4289 ft | 252 kts | 2° |
| 2026-05-06 16:55 | 52.50602 | 20.51856 | 4786 ft | 252 kts | 359° |
| 2026-05-06 16:55 | 52.52364 | 20.51792 | 4985 ft | 253 kts | 356° |
| 2026-05-06 16:56 | 52.54123 | 20.51668 | 4995 ft | 254 kts | 356° |
| 2026-05-06 16:56 | 52.55893 | 20.51517 | 5006 ft | 255 kts | 355° |
| 2026-05-06 16:56 | 52.57675 | 20.51365 | 4998 ft | 256 kts | 358° |
| 2026-05-06 16:56 | 52.59383 | 20.51961 | 4985 ft | 256 kts | 31° |
| 2026-05-06 16:57 | 52.60630 | 20.53955 | 5005 ft | 250 kts | 63° |
| 2026-05-06 16:57 | 52.61209 | 20.56617 | 5005 ft | 247 kts | 82° |
| 2026-05-06 16:57 | 52.61479 | 20.59402 | 5006 ft | 247 kts | 86° |
| 2026-05-06 16:57 | 52.61704 | 20.62214 | 5009 ft | 248 kts | 85° |
| 2026-05-06 16:58 | 52.61939 | 20.65032 | 5002 ft | 248 kts | 85° |
| 2026-05-06 16:58 | 52.62187 | 20.67840 | 4994 ft | 248 kts | 85° |
| 2026-05-06 16:58 | 52.62437 | 20.70652 | 4996 ft | 248 kts | 85° |
| 2026-05-06 16:58 | 52.62690 | 20.73472 | 4987 ft | 248 kts | 85° |
| 2026-05-06 16:59 | 52.62905 | 20.76280 | 4988 ft | 246 kts | 89° |
| 2026-05-06 16:59 | 52.63024 | 20.79084 | 4999 ft | 245 kts | 90° |
| 2026-05-06 16:59 | 52.63124 | 20.81886 | 4993 ft | 244 kts | 90° |
| 2026-05-06 16:59 | 52.63224 | 20.84642 | 4986 ft | 244 kts | 90° |
| 2026-05-06 17:00 | 52.63331 | 20.87428 | 4998 ft | 243 kts | 90° |
| 2026-05-06 17:00 | 52.63440 | 20.90128 | 5510 ft | 232 kts | 90° |
| 2026-05-06 17:00 | 52.63546 | 20.92846 | 6156 ft | 245 kts | 90° |
| 2026-05-06 17:00 | 52.63657 | 20.95704 | 6780 ft | 256 kts | 90° |
| 2026-05-06 17:01 | 52.63687 | 20.98662 | 7366 ft | 257 kts | 104° |
| 2026-05-06 17:01 | 52.62953 | 21.01201 | 7974 ft | 240 kts | 139° |
| 2026-05-06 17:01 | 52.61693 | 21.02941 | 8642 ft | 237 kts | 150° |
| 2026-05-06 17:01 | 52.60294 | 21.04454 | 9299 ft | 244 kts | 153° |
| 2026-05-06 17:02 | 52.58843 | 21.05965 | 9935 ft | 248 kts | 153° |
| 2026-05-06 17:02 | 52.57379 | 21.07495 | 10526 ft | 251 kts | 153° |
| 2026-05-06 17:02 | 52.55895 | 21.09055 | 11136 ft | 255 kts | 153° |
| 2026-05-06 17:02 | 52.54397 | 21.10639 | 11757 ft | 257 kts | 153° |
| 2026-05-06 17:03 | 52.52884 | 21.12245 | 12393 ft | 260 kts | 154° |
| 2026-05-06 17:03 | 52.51355 | 21.13872 | 13048 ft | 265 kts | 153° |
| 2026-05-06 17:03 | 52.49788 | 21.15539 | 13709 ft | 271 kts | 154° |
| 2026-05-06 17:03 | 52.48210 | 21.17221 | 14303 ft | 277 kts | 153° |
| 2026-05-06 17:04 | 52.46587 | 21.18953 | 14911 ft | 279 kts | 153° |
| 2026-05-06 17:04 | 52.44954 | 21.20695 | 15530 ft | 281 kts | 153° |
| 2026-05-06 17:04 | 52.43313 | 21.22441 | 16153 ft | 281 kts | 153° |
| 2026-05-06 17:04 | 52.41668 | 21.24190 | 16801 ft | 282 kts | 153° |
| 2026-05-06 17:05 | 52.39921 | 21.25492 | 17406 ft | 272 kts | 177° |
| 2026-05-06 17:05 | 52.38089 | 21.25279 | 18091 ft | 262 kts | 203° |
| 2026-05-06 17:05 | 52.36507 | 21.23883 | 18691 ft | 258 kts | 222° |
| 2026-05-06 17:05 | 52.35294 | 21.21753 | 19295 ft | 256 kts | 233° |
| 2026-05-06 17:06 | 52.34194 | 21.19453 | 19901 ft | 257 kts | 233° |
| 2026-05-06 17:06 | 52.33092 | 21.17135 | 20517 ft | 258 kts | 233° |
| 2026-05-06 17:06 | 52.31990 | 21.14831 | 21142 ft | 257 kts | 233° |
| 2026-05-06 17:06 | 52.30885 | 21.12534 | 21769 ft | 256 kts | 233° |
| 2026-05-06 17:07 | 52.29786 | 21.10262 | 22428 ft | 254 kts | 233° |
| 2026-05-06 17:07 | 52.28692 | 21.08009 | 23086 ft | 251 kts | 233° |
| 2026-05-06 17:07 | 52.27618 | 21.05806 | 23679 ft | 246 kts | 233° |
| 2026-05-06 17:07 | 52.26530 | 21.03572 | 23909 ft | 259 kts | 233° |
| 2026-05-06 17:08 | 52.25336 | 21.01289 | 24020 ft | 275 kts | 227° |
| 2026-05-06 17:08 | 52.23911 | 20.99122 | 24285 ft | 285 kts | 224° |
| 2026-05-06 17:08 | 52.22386 | 20.96942 | 24549 ft | 296 kts | 224° |
| 2026-05-06 17:08 | 52.20808 | 20.94704 | 24806 ft | 305 kts | 224° |
| 2026-05-06 17:09 | 52.19205 | 20.92417 | 25046 ft | 307 kts | 224° |
| 2026-05-06 17:09 | 52.17600 | 20.90112 | 25271 ft | 307 kts | 224° |
| 2026-05-06 17:09 | 52.15999 | 20.87801 | 25519 ft | 307 kts | 224° |
| 2026-05-06 17:09 | 52.14405 | 20.85491 | 25762 ft | 307 kts | 224° |
| 2026-05-06 17:10 | 52.12817 | 20.83187 | 26004 ft | 306 kts | 224° |
| 2026-05-06 17:10 | 52.11231 | 20.80882 | 26254 ft | 305 kts | 224° |
| 2026-05-06 17:10 | 52.09647 | 20.78583 | 26497 ft | 305 kts | 224° |
| 2026-05-06 17:10 | 52.08095 | 20.76330 | 26906 ft | 297 kts | 224° |
| 2026-05-06 17:11 | 52.06565 | 20.74112 | 27413 ft | 294 kts | 224° |
| 2026-05-06 17:11 | 52.05037 | 20.71896 | 27951 ft | 293 kts | 225° |
| 2026-05-06 17:11 | 52.03521 | 20.69698 | 28479 ft | 291 kts | 225° |
| 2026-05-06 17:11 | 52.02009 | 20.67510 | 29020 ft | 289 kts | 225° |
| 2026-05-06 17:12 | 52.00520 | 20.65355 | 29570 ft | 285 kts | 225° |
| 2026-05-06 17:12 | 51.99044 | 20.63223 | 30060 ft | 282 kts | 225° |
| 2026-05-06 17:12 | 51.97580 | 20.61109 | 30295 ft | 288 kts | 225° |
| 2026-05-06 17:12 | 51.96068 | 20.58927 | 30475 ft | 294 kts | 225° |
| 2026-05-06 17:13 | 51.94424 | 20.56886 | 30627 ft | 306 kts | 209° |
| 2026-05-06 17:13 | 51.92362 | 20.55633 | 30469 ft | 327 kts | 202° |
| 2026-05-06 17:13 | 51.90179 | 20.54419 | 30667 ft | 332 kts | 203° |
| 2026-05-06 17:13 | 51.88013 | 20.53184 | 31197 ft | 328 kts | 203° |
| 2026-05-06 17:14 | 51.85876 | 20.51951 | 31674 ft | 325 kts | 204° |
| 2026-05-06 17:14 | 51.81508 | 20.49405 | 31800 ft | 342 kts | 203° |
| 2026-05-06 17:15 | 51.76897 | 20.46723 | 31794 ft | 362 kts | 202° |
| 2026-05-06 17:15 | 51.71916 | 20.44419 | 31798 ft | 382 kts | 198° |
| 2026-05-06 17:16 | 51.66648 | 20.42250 | 31799 ft | 399 kts | 198° |
| 2026-05-06 17:16 | 51.61171 | 20.39968 | 31794 ft | 414 kts | 198° |
| 2026-05-06 17:17 | 51.55527 | 20.37577 | 31778 ft | 421 kts | 198° |
| 2026-05-06 17:17 | 51.49876 | 20.35173 | 31776 ft | 420 kts | 198° |
| 2026-05-06 17:18 | 51.44230 | 20.32772 | 31785 ft | 419 kts | 198° |
| 2026-05-06 17:18 | 51.38644 | 20.30400 | 31784 ft | 417 kts | 198° |
| 2026-05-06 17:19 | 51.33045 | 20.28029 | 31790 ft | 414 kts | 198° |
| 2026-05-06 17:19 | 51.27482 | 20.25678 | 31789 ft | 413 kts | 198° |
| 2026-05-06 17:20 | 51.21929 | 20.23338 | 31794 ft | 412 kts | 198° |
| 2026-05-06 17:20 | 51.16375 | 20.21002 | 31775 ft | 409 kts | 198° |
| 2026-05-06 17:20 | 51.13629 | 20.19853 | 31148 ft | 408 kts | 197° |
| 2026-05-06 17:21 | 51.10851 | 20.18687 | 30228 ft | 416 kts | 197° |
| 2026-05-06 17:21 | 51.08026 | 20.17502 | 29252 ft | 422 kts | 197° |
| 2026-05-06 17:21 | 51.05169 | 20.16307 | 28319 ft | 426 kts | 197° |
| 2026-05-06 17:21 | 51.02333 | 20.15125 | 28050 ft | 414 kts | 197° |
| 2026-05-06 17:22 | 51.00506 | 20.14366 | 27947 ft | 406 kts | 197° |
| 2026-05-06 17:22 | 50.97737 | 20.13212 | 27854 ft | 416 kts | 197° |
| 2026-05-06 17:22 | 50.94942 | 20.12048 | 27795 ft | 408 kts | 197° |
| 2026-05-06 17:22 | 50.92258 | 20.10935 | 27789 ft | 392 kts | 197° |
| 2026-05-06 17:23 | 50.89671 | 20.09863 | 27786 ft | 376 kts | 197° |
| 2026-05-06 17:23 | 50.87190 | 20.08834 | 27784 ft | 361 kts | 197° |
| 2026-05-06 17:23 | 50.84805 | 20.07846 | 27789 ft | 347 kts | 197° |
| 2026-05-06 17:23 | 50.82508 | 20.06896 | 27787 ft | 334 kts | 197° |
| 2026-05-06 17:24 | 50.80318 | 20.06048 | 27781 ft | 322 kts | 192° |
| 2026-05-06 17:24 | 50.78129 | 20.05718 | 27801 ft | 310 kts | 185° |
| 2026-05-06 17:24 | 50.76010 | 20.05643 | 27786 ft | 299 kts | 184° |
| 2026-05-06 17:24 | 50.73931 | 20.05613 | 27184 ft | 305 kts | 184° |
| 2026-05-06 17:25 | 50.71785 | 20.05567 | 26452 ft | 311 kts | 184° |
| 2026-05-06 17:25 | 50.69596 | 20.05502 | 25702 ft | 318 kts | 184° |
| 2026-05-06 17:25 | 50.67369 | 20.05419 | 24987 ft | 323 kts | 184° |
| 2026-05-06 17:25 | 50.65102 | 20.05324 | 24273 ft | 327 kts | 184° |
| 2026-05-06 17:26 | 50.62805 | 20.05221 | 23589 ft | 331 kts | 184° |
| 2026-05-06 17:26 | 50.60490 | 20.05112 | 22820 ft | 334 kts | 184° |
| 2026-05-06 17:26 | 50.58187 | 20.05003 | 22035 ft | 336 kts | 184° |
| 2026-05-06 17:26 | 50.55841 | 20.04890 | 21265 ft | 338 kts | 184° |
| 2026-05-06 17:27 | 50.53493 | 20.04776 | 20514 ft | 338 kts | 184° |
| 2026-05-06 17:27 | 50.51142 | 20.04663 | 19768 ft | 338 kts | 184° |
| 2026-05-06 17:27 | 50.48793 | 20.04549 | 19044 ft | 337 kts | 184° |
| 2026-05-06 17:27 | 50.46447 | 20.04436 | 18333 ft | 336 kts | 184° |
| 2026-05-06 17:28 | 50.44097 | 20.04314 | 17198 ft | 343 kts | 184° |
| 2026-05-06 17:28 | 50.41715 | 20.04173 | 16359 ft | 341 kts | 185° |
| 2026-05-06 17:28 | 50.39348 | 20.04032 | 15523 ft | 340 kts | 184° |
| 2026-05-06 17:28 | 50.36987 | 20.03891 | 14714 ft | 339 kts | 184° |
| 2026-05-06 17:29 | 50.34914 | 20.03769 | 14006 ft | 337 kts | 184° |
| 2026-05-06 17:29 | 50.32631 | 20.03635 | 13204 ft | 336 kts | 184° |
| 2026-05-06 17:29 | 50.30326 | 20.03501 | 12331 ft | 335 kts | 184° |
| 2026-05-06 17:29 | 50.27971 | 20.03668 | 11417 ft | 337 kts | 173° |
| 2026-05-06 17:30 | 50.25743 | 20.04628 | 10553 ft | 338 kts | 159° |
| 2026-05-06 17:30 | 50.23733 | 20.06714 | 8543 ft | 368 kts | 137° |
| 2026-05-06 17:30 | 50.22321 | 20.10196 | 7128 ft | 387 kts | 113° |
| 2026-05-06 17:30 | 50.21793 | 20.14205 | 6728 ft | 369 kts | 95° |
| 2026-05-06 17:31 | 50.22145 | 20.18111 | 6250 ft | 357 kts | 78° |
| 2026-05-06 17:31 | 50.22706 | 20.21815 | 5728 ft | 344 kts | 80° |
| 2026-05-06 17:31 | 50.22903 | 20.25433 | 5221 ft | 326 kts | 102° |
| 2026-05-06 17:31 | 50.22175 | 20.28590 | 5077 ft | 297 kts | 125° |
| 2026-05-06 17:32 | 50.20903 | 20.30942 | 5013 ft | 271 kts | 142° |
| 2026-05-06 17:32 | 50.20740 | 20.31170 | 5008 ft | 268 kts | 143° |
| 2026-05-06 17:32 | 50.20196 | 20.31858 | 5005 ft | 259 kts | 147° |
| 2026-05-06 17:32 | 50.18732 | 20.33204 | 4991 ft | 236 kts | 162° |
| 2026-05-06 17:33 | 50.17229 | 20.33618 | 4986 ft | 206 kts | 194° |
| 2026-05-06 17:33 | 50.16060 | 20.32667 | 5020 ft | 181 kts | 221° |
| 2026-05-06 17:33 | 50.15275 | 20.31268 | 5000 ft | 163 kts | 235° |
| 2026-05-06 17:33 | 50.14817 | 20.29753 | 4992 ft | 147 kts | 252° |
| 2026-05-06 17:34 | 50.14621 | 20.28181 | 5033 ft | 149 kts | 253° |
| 2026-05-06 17:34 | 50.14401 | 20.26633 | 5006 ft | 143 kts | 253° |
| 2026-05-06 17:34 | 50.14192 | 20.25144 | 5005 ft | 141 kts | 253° |
| 2026-05-06 17:34 | 50.13984 | 20.23639 | 5004 ft | 142 kts | 253° |
| 2026-05-06 17:35 | 50.13776 | 20.22133 | 5000 ft | 142 kts | 253° |
| 2026-05-06 17:35 | 50.13618 | 20.20643 | 5020 ft | 142 kts | 256° |
| 2026-05-06 17:35 | 50.13445 | 20.19111 | 5008 ft | 144 kts | 254° |
| 2026-05-06 17:36 | 50.13043 | 20.16027 | 4875 ft | 154 kts | 253° |
| 2026-05-06 17:36 | 50.12810 | 20.14350 | 4512 ft | 155 kts | 254° |
| 2026-05-06 17:36 | 50.12590 | 20.12761 | 4299 ft | 144 kts | 253° |
| 2026-05-06 17:36 | 50.12381 | 20.11282 | 4179 ft | 143 kts | 253° |
| 2026-05-06 17:37 | 50.12164 | 20.09765 | 4065 ft | 147 kts | 253° |
| 2026-05-06 17:37 | 50.11942 | 20.08197 | 4043 ft | 150 kts | 252° |
| 2026-05-06 17:37 | 50.11717 | 20.06609 | 3877 ft | 152 kts | 253° |
| 2026-05-06 17:37 | 50.11497 | 20.05050 | 3890 ft | 149 kts | 253° |
| 2026-05-06 17:38 | 50.11276 | 20.03484 | 3743 ft | 147 kts | 253° |
| 2026-05-06 17:38 | 50.11056 | 20.01924 | 3539 ft | 146 kts | 253° |
| 2026-05-06 17:38 | 50.10837 | 20.00375 | 3361 ft | 147 kts | 253° |
| 2026-05-06 17:38 | 50.10620 | 19.98836 | 3163 ft | 144 kts | 254° |
| 2026-05-06 17:39 | 50.10407 | 19.97319 | 2976 ft | 143 kts | 253° |
| 2026-05-06 17:39 | 50.10193 | 19.95796 | 2802 ft | 145 kts | 253° |
| 2026-05-06 17:39 | 50.09979 | 19.94284 | 2599 ft | 145 kts | 254° |
| 2026-05-06 17:39 | 50.09766 | 19.92759 | 2416 ft | 143 kts | 254° |
| 2026-05-06 17:40 | 50.09554 | 19.91249 | 2221 ft | 142 kts | 255° |
| 2026-05-06 17:40 | 50.09346 | 19.89757 | 2051 ft | 140 kts | 254° |
| 2026-05-06 17:40 | 50.09136 | 19.88276 | 1854 ft | 142 kts | 255° |
| 2026-05-06 17:40 | 50.08924 | 19.86759 | 1679 ft | 146 kts | 258° |
| 2026-05-06 17:41 | 50.08704 | 19.85171 | 1470 ft | 152 kts | 259° |
| 2026-05-06 17:41 | 50.08480 | 19.83564 | 1273 ft | 152 kts | 259° |
| 2026-05-06 17:41 | 50.08243 | 19.81971 | 1074 ft | 150 kts | 259° |
| 2026-05-06 17:41 | 50.08036 | 19.80399 | 890 ft | 147 kts | 256° |
| 2026-05-06 17:42 | 50.07826 | 19.78894 | 791 ft | 127 kts | 258° |
| 2026-05-06 17:42 | 50.07701 | 19.78059 | 787 ft | 63 kts | 258° |
| 2026-05-06 17:42 | 50.07622 | 19.77421 | 789 ft | 58 kts | 259° |
| 2026-05-06 17:42 | 50.07563 | 19.76961 | 795 ft | 22 kts | 256° |
| 2026-05-06 17:43 | 50.07442 | 19.76863 | 791 ft | 23 kts | 170° |
| 2026-05-06 17:43 | 50.07353 | 19.76891 | 789 ft | 15 kts | 168° |
| 2026-05-06 17:43 | 50.07337 | 19.76897 | 789 ft | 0 kts | 160° |
| 2026-05-06 17:44 | 50.07332 | 19.76901 | 789 ft | 3 kts | 152° |
| 2026-05-06 17:44 | 50.07313 | 19.76976 | 789 ft | 12 kts | 86° |
| 2026-05-06 17:45 | 50.07337 | 19.77151 | 789 ft | 21 kts | 78° |
| 2026-05-06 17:45 | 50.07373 | 19.77425 | 789 ft | 30 kts | 77° |
| 2026-05-06 17:45 | 50.07422 | 19.77774 | 789 ft | 32 kts | 78° |
| 2026-05-06 17:45 | 50.07459 | 19.78048 | 788 ft | 21 kts | 78° |
| 2026-05-06 17:46 | 50.07493 | 19.78291 | 789 ft | 25 kts | 77° |
| 2026-05-06 17:46 | 50.07533 | 19.78572 | 789 ft | 28 kts | 77° |
| 2026-05-06 17:46 | 50.07576 | 19.78884 | 789 ft | 31 kts | 77° |
| 2026-05-06 17:46 | 50.07624 | 19.79217 | 789 ft | 23 kts | 77° |
| 2026-05-06 17:47 | 50.07660 | 19.79476 | 789 ft | 26 kts | 78° |
| 2026-05-06 17:47 | 50.07694 | 19.79738 | 789 ft | 20 kts | 77° |
| 2026-05-06 17:47 | 50.07694 | 19.79895 | 789 ft | 10 kts | 128° |
| 2026-05-06 17:47 | 50.07623 | 19.79919 | 789 ft | 13 kts | 187° |
| 2026-05-06 17:48 | 50.07552 | 19.79922 | 789 ft | 2 kts | 170° |
| 2026-05-06 17:48 | 50.07520 | 19.79964 | 789 ft | 10 kts | 113° |
| 2026-05-06 17:48 | 50.07527 | 19.80101 | 789 ft | 17 kts | 78° |
| 2026-05-06 17:48 | 50.07543 | 19.80251 | 789 ft | 0 kts | 104° |
| 2026-05-06 17:49 | 50.07525 | 19.80267 | 789 ft | 6 kts | 161° |
| 2026-05-06 17:49 | 50.07509 | 19.80273 | 789 ft | 3 kts | 170° |
| 2026-05-06 17:49 | 50.07500 | 19.80275 | 789 ft | 0 kts | 170° |